Orbital elements of COSMOS 970 DEB
| Launched | 20 December 1977 |
| Flight ended | – |
| Launch site | Tyuratam Missile and Space Center, Kazakhstan (Also known as Baikonur Cosmodrome) |
| Owner | Commonwealth of Independent States (former USSR) |
| NORAD ID | 10574 |
| Date fetched |
Epoch osculation |
Inc. [°] |
Ecc. | RA asc node [hr] |
Arg Peri. [°] |
Mean anom [°] |
Mean motion [rev/day] |
Abs. mag |
| Date fetched |
Epoch osculation |
Inc. [°] |
Ecc. | RA asc node [hr] |
Arg Peri. [°] |
Mean anom [°] |
Mean motion [rev/day] |
Abs. mag |
| 2026 May 03 17:57 | 2026 Apr 30 05:35:55 | 65.5483 | 0.01238 | 3.1916 | 203.7052 | 320.2962 | 13.60788 | – |
| 2026 May 02 17:57 | 2026 Apr 30 05:35:55 | 65.5483 | 0.01238 | 3.1916 | 203.7052 | 320.2962 | 13.60788 | – |
| 2026 May 01 17:56 | 2026 Apr 30 05:35:55 | 65.5483 | 0.01238 | 3.1916 | 203.7052 | 320.2962 | 13.60788 | – |
| 2026 Apr 30 17:56 | 2026 Apr 30 05:35:55 | 65.5483 | 0.01238 | 3.1916 | 203.7052 | 320.2962 | 13.60788 | – |
| 2026 Apr 29 17:57 | 2026 Apr 24 11:43:59 | 65.5474 | 0.01243 | 4.1256 | 206.1288 | 320.2962 | 13.60788 | – |
| 2026 Apr 28 17:56 | 2026 Apr 24 11:43:59 | 65.5474 | 0.01243 | 4.1256 | 206.1288 | 320.2962 | 13.60788 | – |
| 2026 Apr 27 17:58 | 2026 Apr 24 11:43:59 | 65.5474 | 0.01243 | 4.1256 | 206.1288 | 320.2962 | 13.60788 | – |
| 2026 Apr 26 17:58 | 2026 Apr 24 11:43:59 | 65.5474 | 0.01243 | 4.1256 | 206.1288 | 320.2962 | 13.60788 | – |
| 2026 Apr 25 17:58 | 2026 Apr 24 11:43:59 | 65.5474 | 0.01243 | 4.1256 | 206.1288 | 320.2962 | 13.60788 | – |
| 2026 Apr 24 17:59 | 2026 Apr 24 11:43:59 | 65.5474 | 0.01243 | 4.1256 | 206.1288 | 320.2962 | 13.60788 | – |
| 2026 Apr 23 17:57 | 2026 Apr 19 08:07:23 | 65.5464 | 0.01248 | 4.9630 | 208.2936 | 320.2962 | 13.60788 | – |
| 2026 Apr 22 17:57 | 2026 Apr 19 08:07:23 | 65.5464 | 0.01248 | 4.9630 | 208.2936 | 320.2962 | 13.60788 | – |
| 2026 Apr 21 17:57 | 2026 Apr 19 08:07:23 | 65.5464 | 0.01248 | 4.9630 | 208.2936 | 320.2962 | 13.60788 | – |
| 2026 Apr 20 17:57 | 2026 Apr 19 08:07:23 | 65.5464 | 0.01248 | 4.9630 | 208.2936 | 320.2962 | 13.60788 | – |
| 2026 Apr 19 17:58 | 2026 Apr 19 08:07:23 | 65.5464 | 0.01248 | 4.9630 | 208.2936 | 320.2962 | 13.60788 | – |
| 2026 Apr 18 17:56 | 2026 Apr 13 05:26:20 | 65.5455 | 0.01254 | 5.9568 | 210.8207 | 320.2962 | 13.60788 | – |
| 2026 Apr 16 17:57 | 2026 Apr 13 05:26:20 | 65.5455 | 0.01254 | 5.9568 | 210.8207 | 320.2962 | 13.60788 | – |
| 2026 Apr 14 17:57 | 2026 Apr 13 05:26:20 | 65.5455 | 0.01254 | 5.9568 | 210.8207 | 320.2962 | 13.60788 | – |
| 2026 Apr 13 17:57 | 2026 Apr 13 05:26:20 | 65.5455 | 0.01254 | 5.9568 | 210.8207 | 320.2962 | 13.60788 | – |
| 2026 Apr 12 17:57 | 2026 Apr 08 05:51:00 | 65.5450 | 0.01258 | 6.7671 | 212.8376 | 320.2962 | 13.60788 | – |
| 2026 Apr 11 17:57 | 2026 Apr 08 05:51:00 | 65.5450 | 0.01258 | 6.7671 | 212.8376 | 320.2962 | 13.60788 | – |
| 2026 Apr 10 17:58 | 2026 Apr 08 05:51:00 | 65.5450 | 0.01258 | 6.7671 | 212.8376 | 320.2962 | 13.60788 | – |
| 2026 Apr 09 18:01 | 2026 Apr 08 05:51:00 | 65.5450 | 0.01258 | 6.7671 | 212.8376 | 320.2962 | 13.60788 | – |
| 2026 Apr 08 17:57 | 2026 Apr 08 05:51:00 | 65.5450 | 0.01258 | 6.7671 | 212.8376 | 320.2962 | 13.60788 | – |
| 2026 Apr 07 17:57 | 2026 Apr 02 05:06:40 | 65.5450 | 0.01263 | 7.7477 | 215.2365 | 320.2962 | 13.60788 | – |
| 2026 Apr 06 17:57 | 2026 Apr 02 05:06:40 | 65.5450 | 0.01263 | 7.7477 | 215.2365 | 320.2962 | 13.60788 | – |